Time;durP1;ratioP1;P1;durP2;ratioP2;P2;SDS_P1;SDS_P2;PMS_P1;PMS_P2;Temp;Humidity;BMP_temperature;BMP_pressure;BME280_temperature;BME280_humidity;BME280_pressure;Samples;Min_cycle;Max_cycle;Signal;HPM_P1;HPM_P2
2023/12/14 00:00:08;;;;;;;1.17;1.10;;;;;;;4.50;100.00;98221.06;5093276;28;20131;-74
2023/12/14 00:02:37;;;;;;;2.13;2.00;;;;;;;4.51;100.00;98226.97;5093553;28;20052;-72
2023/12/14 00:05:07;;;;;;;2.10;1.95;;;;;;;4.51;100.00;98232.00;5093129;28;20502;-74
2023/12/14 00:07:36;;;;;;;7.35;4.78;;;;;;;4.54;100.00;98239.56;5092376;28;20046;-71
2023/12/14 00:10:06;;;;;;;7.10;3.87;;;;;;;4.51;100.00;98242.94;5091864;28;20470;-71
2023/12/14 00:12:36;;;;;;;2.55;2.30;;;;;;;4.48;100.00;98242.09;5093059;28;20276;-73
2023/12/14 00:15:06;;;;;;;1.85;1.67;;;;;;;4.45;100.00;98242.94;5094571;28;20048;-74
2023/12/14 00:17:34;;;;;;;;;;;;;;;4.46;100.00;98243.78;5097319;28;20068;-74
2023/12/14 00:20:03;;;;;;;3.80;2.67;;;;;;;4.46;100.00;98243.78;5095713;28;19920;-73
2023/12/14 00:22:32;;;;;;;;;;;;;;;4.45;100.00;98249.69;5097410;28;20052;-72
2023/12/14 00:25:02;;;;;;;1.90;1.80;;;;;;;4.44;100.00;98242.97;5095791;28;20326;-72
2023/12/14 00:27:31;;;;;;;1.30;1.20;;;;;;;4.43;100.00;98237.06;5097158;28;20071;-71
2023/12/14 00:30:01;;;;;;;4.53;1.97;;;;;;;4.44;100.00;98235.38;5096393;28;20047;-74
2023/12/14 00:32:30;;;;;;;0.93;0.93;;;;;;;4.45;100.00;98242.94;5096999;28;20040;-71
2023/12/14 00:34:59;;;;;;;2.35;2.15;;;;;;;4.49;100.00;98238.72;5096771;28;20086;-73
2023/12/14 00:37:28;;;;;;;4.38;3.40;;;;;;;4.52;100.00;98238.72;5096637;28;20125;-71
2023/12/14 00:39:57;;;;;;;2.50;1.55;;;;;;;4.53;100.00;98245.47;5096416;28;20040;-74
2023/12/14 00:42:26;;;;;;;3.95;1.80;;;;;;;4.47;100.00;98250.50;5096700;28;20089;-74
2023/12/14 00:44:55;;;;;;;1.53;1.43;;;;;;;4.48;100.00;98252.22;5095433;28;20036;-72
2023/12/14 00:47:25;;;;;;;3.78;1.42;;;;;;;4.47;100.00;98255.56;5096548;28;20040;-71
2023/12/14 00:49:55;;;;;;;4.05;3.13;;;;;;;4.52;100.00;98261.47;5096404;28;20123;-71
2023/12/14 00:52:24;;;;;;;3.70;2.50;;;;;;;4.50;100.00;98258.09;5096452;28;20039;-71
2023/12/14 00:54:52;;;;;;;2.30;2.10;;;;;;;4.40;100.00;98249.69;5095135;28;20036;-73
2023/12/14 00:57:21;;;;;;;2.37;2.17;;;;;;;4.45;100.00;98259.78;5096392;28;20048;-72
2023/12/14 00:59:50;;;;;;;1.40;1.30;;;;;;;4.49;100.00;98258.94;5096112;28;20281;-73
2023/12/14 01:02:19;;;;;;;4.13;3.35;;;;;;;4.49;100.00;98258.94;5078338;28;20293;-71
2023/12/14 01:04:49;;;;;;;9.20;5.65;;;;;;;4.50;100.00;98250.53;5095853;28;20123;-71
2023/12/14 01:07:18;;;;;;;2.85;2.00;;;;;;;4.49;100.00;98253.88;5096099;28;20044;-74
2023/12/14 01:09:47;;;;;;;1.45;1.35;;;;;;;4.51;100.00;98248.00;5095963;28;20051;-74
2023/12/14 01:12:16;;;;;;;3.10;2.88;;;;;;;4.53;100.00;98250.53;5096066;28;20036;-73
2023/12/14 01:14:45;;;;;;;1.20;1.10;;;;;;;4.53;100.00;98253.91;5094737;28;20490;-74
2023/12/14 01:17:14;;;;;;;1.25;1.15;;;;;;;4.54;100.00;98252.19;5095715;28;20037;-72
2023/12/14 01:19:43;;;;;;;4.97;4.57;;;;;;;4.54;100.00;98262.31;5095701;28;20036;-72
2023/12/14 01:22:13;;;;;;;4.07;2.17;;;;;;;4.52;100.00;98264.00;5095653;28;20094;-71
2023/12/14 01:24:44;;;;;;;2.42;2.10;;;;;;;4.54;100.00;98268.19;5096003;28;20046;-72
2023/12/14 01:27:14;;;;;;;;;;;;;;;4.53;100.00;98276.63;5094902;28;20048;-72
2023/12/14 01:29:43;;;;;;;3.28;2.53;;;;;;;4.54;100.00;98277.47;5095425;28;20007;-74
2023/12/14 01:32:12;;;;;;;1.83;1.73;;;;;;;4.51;100.00;98272.44;5077316;28;20051;-74
2023/12/14 01:34:41;;;;;;;1.48;1.38;;;;;;;4.51;100.00;98274.94;5094380;28;20036;-73
2023/12/14 01:37:09;;;;;;;8.77;3.53;;;;;;;4.51;100.00;98277.47;5095407;28;20062;-72
2023/12/14 01:39:40;;;;;;;1.17;1.07;;;;;;;4.47;100.00;98275.78;5095319;28;20032;-73
2023/12/14 01:42:09;;;;;;;3.05;2.75;;;;;;;4.43;100.00;98279.16;5095583;28;20131;-73
2023/12/14 01:44:38;;;;;;;3.07;2.73;;;;;;;4.43;100.00;98284.19;5095425;28;20051;-73
2023/12/14 01:47:06;;;;;;;8.10;2.40;;;;;;;4.36;100.00;98279.97;5095536;28;20330;-72
2023/12/14 01:49:35;;;;;;;4.70;3.50;;;;;;;4.40;100.00;98284.19;5093719;28;20504;-73
2023/12/14 01:52:05;;;;;;;2.87;2.67;;;;;;;4.38;100.00;98290.91;5094996;28;20326;-73
2023/12/14 01:54:33;;;;;;;;;;;;;;;4.39;100.00;98282.53;5095933;28;20044;-73
2023/12/14 01:57:04;;;;;;;1.73;1.63;;;;;;;4.39;100.00;98280.00;5095215;28;19924;-72
2023/12/14 01:59:33;;;;;;;3.75;1.77;;;;;;;4.32;100.00;98280.81;5094918;28;20044;-73
2023/12/14 02:02:02;;;;;;;1.40;1.30;;;;;;;4.37;100.00;98294.28;5094838;28;20517;-74
2023/12/14 02:04:32;;;;;;;2.28;2.08;;;;;;;4.36;100.00;98295.13;5095421;28;20413;-72
2023/12/14 02:07:01;;;;;;;0.90;0.90;;;;;;;4.35;100.00;98293.44;5095144;28;20048;-72
2023/12/14 02:09:30;;;;;;;1.83;1.73;;;;;;;4.36;100.00;98298.50;5093215;28;20494;-72
2023/12/14 02:11:58;;;;;;;2.00;1.85;;;;;;;4.38;100.00;98286.72;5094999;28;20059;-72
2023/12/14 02:14:29;;;;;;;3.83;3.42;;;;;;;4.37;100.00;98295.13;5094578;28;20051;-72
2023/12/14 02:16:58;;;;;;;2.33;2.20;;;;;;;4.34;100.00;98305.25;5095073;28;20052;-73
2023/12/14 02:19:27;;;;;;;5.50;3.85;;;;;;;4.32;100.00;98311.13;5094488;28;20490;-73
2023/12/14 02:21:56;;;;;;;2.92;1.80;;;;;;;4.26;100.00;98301.00;5093820;28;20522;-72
2023/12/14 02:24:27;;;;;;;1.55;1.45;;;;;;;4.28;100.00;98309.41;5094708;28;20040;-72
2023/12/14 02:26:55;;;;;;;3.65;3.30;;;;;;;4.24;100.00;98302.69;5094339;28;20135;-72
2023/12/14 02:29:31;;;;;;;2.25;2.10;;;;;;;4.27;100.00;98307.75;5093596;28;20486;-72
2023/12/14 02:32:00;;;;;;;0.73;0.73;;;;;;;4.30;100.00;98313.63;5094288;28;20044;-72
2023/12/14 02:34:29;;;;;;;3.72;3.42;;;;;;;4.30;100.00;98322.88;5094266;28;20513;-73
2023/12/14 02:36:58;;;;;;;1.80;1.70;;;;;;;4.27;100.00;98327.94;5094594;28;20040;-72
2023/12/14 02:39:29;;;;;;;3.00;2.30;;;;;;;4.22;100.00;98324.56;5094120;28;20398;-73
2023/12/14 02:41:57;;;;;;;2.00;1.85;;;;;;;4.18;100.00;98343.06;5094276;28;20051;-72
2023/12/14 02:44:26;;;;;;;2.13;1.93;;;;;;;4.15;100.00;98343.06;5094131;28;20040;-73
2023/12/14 02:46:55;;;;;;;1.80;1.65;;;;;;;4.08;100.00;98343.03;5093196;28;20333;-72
2023/12/14 02:49:36;;;;;;;1.67;1.58;;;;;;;4.05;100.00;98353.09;5093039;28;20532;-72
2023/12/14 02:52:06;;;;;;;2.55;1.77;;;;;;;4.03;100.00;98349.75;5094475;28;20130;-72
2023/12/14 02:54:37;;;;;;;0.80;0.80;;;;;;;4.04;100.00;98346.38;5092876;28;20031;-72
2023/12/14 02:57:07;;;;;;;1.98;1.85;;;;;;;4.02;100.00;98354.78;5094286;28;20135;-72
2023/12/14 02:59:35;;;;;;;1.50;1.08;;;;;;;4.01;100.00;98356.47;5094023;28;20036;-72
2023/12/14 03:02:04;;;;;;;1.50;1.40;;;;;;;4.00;100.00;98359.00;5093772;28;20131;-72
2023/12/14 03:04:33;;;;;;;1.88;1.77;;;;;;;3.94;100.00;98343.81;5092324;28;20366;-73
2023/12/14 03:07:02;;;;;;;1.77;1.67;;;;;;;4.00;100.00;98359.84;5093778;28;20040;-72
2023/12/14 03:09:31;;;;;;;2.15;1.95;;;;;;;4.03;100.00;98364.88;5092690;28;20032;-72
2023/12/14 03:12:02;;;;;;;9.55;2.05;;;;;;;4.00;100.00;98354.78;5094133;28;20032;-72
2023/12/14 03:14:34;;;;;;;2.35;2.13;;;;;;;4.01;100.00;98356.47;5092817;28;20044;-73
2023/12/14 03:17:05;;;;;;;2.35;2.13;;;;;;;4.02;100.00;98362.38;5094272;28;20048;-73
2023/12/14 03:19:34;;;;;;;1.77;1.60;;;;;;;4.01;100.00;98361.50;5093998;28;20044;-72
2023/12/14 03:22:03;;;;;;;2.00;1.70;;;;;;;3.99;100.00;98370.75;5094162;28;20040;-73
2023/12/14 03:24:32;;;;;;;2.75;2.55;;;;;;;3.98;100.00;98366.53;5092597;28;20060;-73
2023/12/14 03:27:02;;;;;;;3.03;2.77;;;;;;;3.98;100.00;98366.53;5094299;28;20066;-72
2023/12/14 03:29:31;;;;;;;2.75;1.77;;;;;;;3.88;100.00;98359.78;5093061;28;20123;-73
2023/12/14 03:32:15;;;;;;;1.77;1.67;;;;;;;3.93;100.00;98373.28;5093441;28;20070;-73
2023/12/14 03:34:45;;;;;;;3.58;2.55;;;;;;;3.83;100.00;98374.06;5093794;28;20368;-72
2023/12/14 03:37:13;;;;;;;1.60;1.35;;;;;;;3.84;100.00;98383.31;5092434;28;20035;-72
2023/12/14 03:39:43;;;;;;;1.85;1.75;;;;;;;3.83;100.00;98380.78;5093367;28;20044;-73
2023/12/14 03:42:13;;;;;;;1.15;1.15;;;;;;;3.74;100.00;98374.00;5093317;28;20559;-73
2023/12/14 03:44:43;;;;;;;3.75;3.45;;;;;;;3.83;100.00;98385.84;5092289;28;20043;-73
2023/12/14 03:47:11;;;;;;;1.17;1.07;;;;;;;3.83;100.00;98388.34;5093392;28;20051;-72
2023/12/14 03:49:40;;;;;;;2.70;2.47;;;;;;;3.79;100.00;98379.09;5094176;28;20280;-72
2023/12/14 03:52:10;;;;;;;2.33;2.15;;;;;;;3.76;100.00;98382.44;5097604;28;20058;-72
2023/12/14 03:54:39;;;;;;;1.05;1.05;;;;;;;3.78;100.00;98383.28;5096324;28;20040;-72
2023/12/14 03:57:08;;;;;;;2.50;2.30;;;;;;;3.79;100.00;98390.00;5097312;28;20044;-72
2023/12/14 03:59:41;;;;;;;15.68;3.65;;;;;;;3.76;100.00;98379.91;5097409;28;20277;-73
2023/12/14 04:02:10;;;;;;;2.90;2.70;;;;;;;3.74;100.00;98386.59;5096210;28;20044;-72
2023/12/14 04:04:40;;;;;;;2.08;1.98;;;;;;;3.71;100.00;98381.56;5097333;28;20032;-73
2023/12/14 04:07:08;;;;;;;;;;;;;;;3.77;100.00;98399.25;5097965;28;20040;-72
2023/12/14 04:09:38;;;;;;;1.50;1.40;;;;;;;3.75;100.00;98382.41;5097015;28;19969;-73
2023/12/14 04:12:07;;;;;;;3.03;2.80;;;;;;;3.82;100.00;98390.03;5096324;28;20028;-73
2023/12/14 04:14:36;;;;;;;5.57;5.05;;;;;;;3.83;100.00;98391.72;5096881;28;20052;-73
2023/12/14 04:17:06;;;;;;;0.80;0.80;;;;;;;3.80;100.00;98384.13;5097137;28;20050;-73
2023/12/14 04:19:35;;;;;;;6.38;3.13;;;;;;;3.78;100.00;98385.81;5097029;28;20493;-73
2023/12/14 04:22:04;;;;;;;0.98;0.95;;;;;;;3.87;100.00;98403.50;5095627;28;20486;-73
2023/12/14 04:24:33;;;;;;;5.45;2.08;;;;;;;3.83;100.00;98401.81;5096921;28;20060;-73
2023/12/14 04:27:02;;;;;;;0.80;0.80;;;;;;;3.80;100.00;98396.75;5096729;28;20043;-73
2023/12/14 04:29:31;;;;;;;1.93;1.83;;;;;;;3.80;100.00;98411.88;5097420;28;20028;-73
2023/12/14 04:32:00;;;;;;;1.35;1.25;;;;;;;3.78;100.00;98403.47;5096447;28;20123;-73
2023/12/14 04:34:30;;;;;;;1.85;1.58;;;;;;;3.78;100.00;98421.13;5095477;28;20040;-73
2023/12/14 04:36:59;;;;;;;1.23;1.13;;;;;;;3.80;100.00;98416.09;5097095;28;20478;-72
2023/12/14 04:39:29;;;;;;;1.05;1.05;;;;;;;3.71;100.00;98421.94;5096744;28;20127;-73
2023/12/14 04:41:57;;;;;;;1.77;1.60;;;;;;;3.68;100.00;98416.88;5095418;28;20036;-72
2023/12/14 04:44:26;;;;;;;1.03;1.00;;;;;;;3.68;100.00;98424.44;5096770;28;20047;-73
2023/12/14 04:46:55;;;;;;;1.85;1.75;;;;;;;3.66;100.00;98430.31;5095253;28;20054;-73
2023/12/14 04:49:24;;;;;;;2.05;1.88;;;;;;;3.67;100.00;98437.88;5096490;28;20036;-72
2023/12/14 04:51:54;;;;;;;2.80;2.60;;;;;;;3.36;100.00;98390.59;5096230;28;20043;-72
2023/12/14 04:54:23;;;;;;;2.03;1.70;;;;;;;3.68;100.00;98443.75;5096462;28;20758;-73
2023/12/14 04:56:52;;;;;;;4.57;3.88;;;;;;;3.71;100.00;98457.25;5096054;28;20040;-73
2023/12/14 04:59:21;;;;;;;9.53;2.57;;;;;;;3.71;100.00;98462.31;5095165;28;20040;-73
2023/12/14 05:01:50;;;;;;;3.55;3.20;;;;;;;3.71;100.00;98457.25;5095795;28;20321;-73
2023/12/14 05:04:19;;;;;;;6.35;4.90;;;;;;;3.69;100.00;98463.97;5096248;28;20028;-73
2023/12/14 05:06:47;;;;;;;2.77;2.53;;;;;;;3.66;100.00;98463.94;5078294;28;20032;-73
2023/12/14 05:09:18;;;;;;;3.93;3.40;;;;;;;3.67;100.00;98464.78;5095796;28;20349;-73
2023/12/14 05:11:46;;;;;;;1.05;0.95;;;;;;;3.63;100.00;98471.47;5095098;28;20388;-72
2023/12/14 05:14:15;;;;;;;1.73;1.63;;;;;;;3.57;100.00;98481.53;5094920;28;20028;-73
2023/12/14 05:16:45;;;;;;;4.07;2.67;;;;;;;3.57;100.00;98473.13;5094739;28;20044;-73
2023/12/14 05:19:14;;;;;;;1.38;1.27;;;;;;;3.55;100.00;98485.69;5094887;28;20272;-73
2023/12/14 05:21:42;;;;;;;2.80;2.33;;;;;;;3.24;100.00;98434.19;5095565;28;20476;-73
2023/12/14 05:24:12;;;;;;;2.95;2.75;;;;;;;3.49;100.00;98483.16;5095833;28;20037;-72
2023/12/14 05:26:42;;;;;;;3.23;2.27;;;;;;;3.46;100.00;98484.78;5095710;28;20043;-73
2023/12/14 05:29:11;;;;;;;2.75;2.55;;;;;;;3.50;100.00;98481.47;5095468;28;20277;-72
2023/12/14 05:31:40;;;;;;;4.32;2.05;;;;;;;3.36;100.00;98472.13;5095500;28;20043;-72
2023/12/14 05:34:08;;;;;;;2.13;1.52;;;;;;;3.53;100.00;98502.50;5095972;28;20038;-73
2023/12/14 05:36:37;;;;;;;1.57;1.47;;;;;;;3.58;100.00;98505.91;5094576;28;20048;-72
2023/12/14 05:39:06;;;;;;;6.38;4.90;;;;;;;3.57;100.00;98511.81;5095587;28;20372;-72
2023/12/14 05:41:42;;;;;;;4.03;3.73;;;;;;;3.58;100.00;98513.47;5095105;28;20044;-72
2023/12/14 05:44:11;;;;;;;1.85;1.75;;;;;;;3.59;100.00;98502.56;5095429;28;20076;-73
2023/12/14 05:46:40;;;;;;;1.55;1.45;;;;;;;3.60;100.00;98509.28;5095656;28;20042;-73
2023/12/14 05:49:09;;;;;;;2.58;2.38;;;;;;;3.62;100.00;98522.78;5094216;28;20048;-72
2023/12/14 05:51:39;;;;;;;4.53;2.92;;;;;;;3.59;100.00;98517.69;5094154;28;20123;-72
2023/12/14 05:54:08;;;;;;;6.15;2.88;;;;;;;3.49;100.00;98505.00;5095361;28;20128;-73
2023/12/14 05:56:36;;;;;;;6.27;3.17;;;;;;;3.61;100.00;98520.22;5095180;28;20067;-73
2023/12/14 05:59:09;;;;;;;4.75;3.42;;;;;;;3.64;100.00;98530.34;5094794;28;20284;-72
2023/12/14 06:01:38;;;;;;;5.97;4.55;;;;;;;3.63;100.00;98526.97;5094765;28;20480;-73
2023/12/14 06:04:07;;;;;;;1.60;1.50;;;;;;;3.66;100.00;98549.72;5094880;28;20040;-72
2023/12/14 06:06:38;;;;;;;3.15;2.80;;;;;;;3.70;100.00;98546.38;5094661;28;20516;-73
2023/12/14 06:09:08;;;;;;;3.40;3.10;;;;;;;3.73;100.00;98556.50;5094780;28;20397;-72
2023/12/14 06:11:37;;;;;;;2.40;2.20;;;;;;;3.74;100.00;98553.13;5094783;28;20044;-72
2023/12/14 06:14:06;;;;;;;1.90;1.80;;;;;;;3.67;100.00;98540.47;5093122;28;20028;-73
2023/12/14 06:16:37;;;;;;;5.30;3.20;;;;;;;3.76;100.00;98560.72;5094447;28;20528;-73
2023/12/14 06:19:06;;;;;;;1.42;1.33;;;;;;;3.73;100.00;98561.53;5094823;28;20044;-73
2023/12/14 06:21:35;;;;;;;2.15;2.03;;;;;;;3.73;100.00;98569.09;5094578;28;20093;-72
2023/12/14 06:24:05;;;;;;;1.95;1.85;;;;;;;3.75;100.00;98564.91;5094437;28;20036;-72
2023/12/14 06:26:33;;;;;;;3.78;3.15;;;;;;;3.73;100.00;98571.63;5093594;28;20059;-72
2023/12/14 06:29:02;;;;;;;1.43;1.33;;;;;;;3.77;100.00;98575.00;5094592;28;20097;-73
2023/12/14 06:31:31;;;;;;;3.38;3.08;;;;;;;3.79;100.00;98581.75;5093138;28;20058;-72
2023/12/14 06:34:05;;;;;;;3.47;2.92;;;;;;;3.82;100.00;98586.84;5094612;28;20397;-73
2023/12/14 06:36:34;;;;;;;1.35;1.25;;;;;;;3.83;100.00;98587.69;5094269;28;20048;-73
2023/12/14 06:39:04;;;;;;;2.58;2.08;;;;;;;3.80;100.00;98592.69;5093495;28;20043;-73
2023/12/14 06:41:32;;;;;;;;;;;;;;;3.83;100.00;98602.81;5094743;28;20036;-73
2023/12/14 06:44:01;;;;;;;3.07;2.83;;;;;;;3.81;100.00;98599.44;5092842;28;19920;-72
2023/12/14 06:46:30;;;;;;;1.75;1.65;;;;;;;3.79;100.00;98604.47;5094298;28;20046;-72
2023/12/14 06:48:59;;;;;;;1.52;1.35;;;;;;;3.80;100.00;98603.66;5093969;28;20414;-73
2023/12/14 06:51:29;;;;;;;1.95;1.85;;;;;;;3.78;100.00;98600.28;5093035;28;20036;-73
2023/12/14 06:53:58;;;;;;;2.25;2.13;;;;;;;3.80;100.00;98605.31;5094053;28;20040;-72
2023/12/14 06:56:27;;;;;;;0.70;0.70;;;;;;;3.84;100.00;98615.44;5094399;28;20036;-72
2023/12/14 06:58:56;;;;;;;1.45;1.35;;;;;;;3.87;100.00;98618.00;5093545;28;20487;-73
2023/12/14 07:01:25;;;;;;;2.60;1.60;;;;;;;3.88;100.00;98619.72;5093888;28;20040;-73
2023/12/14 07:03:53;;;;;;;1.73;1.60;;;;;;;3.91;100.00;98632.31;5093954;28;20047;-72
2023/12/14 07:06:23;;;;;;;1.83;1.73;;;;;;;3.92;100.00;98628.97;5093956;28;20490;-72
2023/12/14 07:08:53;;;;;;;3.13;2.67;;;;;;;3.93;100.00;98634.88;5093648;28;20512;-73
2023/12/14 07:11:22;;;;;;;1.65;1.55;;;;;;;3.93;100.00;98635.75;5092554;28;20047;-73
2023/12/14 07:13:50;;;;;;;2.80;1.77;;;;;;;3.96;100.00;98645.84;5093793;28;20047;-73
2023/12/14 07:16:19;;;;;;;3.13;1.90;;;;;;;3.97;100.00;98647.53;5093665;28;20076;-73
2023/12/14 07:18:48;;;;;;;2.55;2.35;;;;;;;3.99;100.00;98650.91;5109598;28;20367;-73
2023/12/14 07:21:17;;;;;;;7.68;5.07;;;;;;;3.96;100.00;98647.50;5114192;28;20462;-73
2023/12/14 07:23:46;;;;;;;8.03;7.33;;;;;;;4.04;100.00;98654.34;5096226;28;20032;-72
2023/12/14 07:26:16;;;;;;;7.22;6.05;;;;;;;4.08;100.00;98650.13;5116117;28;20035;-73
2023/12/14 07:28:45;;;;;;;4.57;3.63;;;;;;;4.13;100.00;98658.59;5118345;28;20059;-73
2023/12/14 07:31:14;;;;;;;1.90;1.73;;;;;;;4.16;100.00;98660.28;5118263;28;20044;-72
2023/12/14 07:33:43;;;;;;;6.63;4.17;;;;;;;4.21;100.00;98661.19;5118178;28;20042;-72
2023/12/14 07:36:12;;;;;;;4.33;2.80;;;;;;;4.26;100.00;98664.59;5118364;28;20290;-71
2023/12/14 07:38:40;;;;;;;3.28;2.92;;;;;;;4.27;100.00;98666.31;5118078;28;20032;-71
2023/12/14 07:41:09;;;;;;;4.88;3.08;;;;;;;4.35;100.00;98674.75;5118691;28;20485;-71
2023/12/14 07:43:40;;;;;;;4.18;3.78;;;;;;;4.38;100.00;98674.78;5117739;28;20044;-71
2023/12/14 07:46:09;;;;;;;3.05;2.80;;;;;;;4.36;100.00;98673.94;5118440;28;20078;-71
2023/12/14 07:48:37;;;;;;;5.80;5.30;;;;;;;4.33;100.00;98676.44;5118095;28;20036;-71
2023/12/14 07:51:07;;;;;;;8.80;4.60;;;;;;;4.36;100.00;98681.50;5118366;28;20043;-71
2023/12/14 07:53:35;;;;;;;4.90;3.83;;;;;;;4.33;100.00;98676.44;5117925;28;20043;-72
2023/12/14 07:56:05;;;;;;;4.00;3.60;;;;;;;4.40;100.00;98685.75;5117573;28;20047;-71
2023/12/14 07:58:33;;;;;;;3.80;3.28;;;;;;;4.45;100.00;98682.44;5117838;27;20073;-71
2023/12/14 08:01:04;;;;;;;7.33;3.87;;;;;;;4.47;100.00;98693.38;5117678;28;20036;-71
2023/12/14 08:03:33;;;;;;;1.67;1.58;;;;;;;4.51;100.00;98701.84;5117844;28;20043;-71
2023/12/14 08:06:02;;;;;;;2.13;1.93;;;;;;;4.51;100.00;98701.84;5099444;28;20039;-71
2023/12/14 08:08:31;;;;;;;2.58;2.38;;;;;;;4.50;100.00;98702.66;5116234;28;20043;-71
2023/12/14 08:11:00;;;;;;;2.95;2.70;;;;;;;4.42;100.00;98697.56;5116375;28;20561;-72
2023/12/14 08:13:29;;;;;;;1.23;1.13;;;;;;;4.47;100.00;98702.63;5117552;28;20077;-72
2023/12/14 08:15:57;;;;;;;5.23;3.57;;;;;;;4.49;100.00;98713.59;5117603;28;20758;-72
2023/12/14 08:18:28;;;;;;;2.23;2.03;;;;;;;4.49;100.00;98713.59;5117468;28;20028;-72
2023/12/14 08:20:57;;;;;;;1.70;1.60;;;;;;;4.48;100.00;98711.91;5118074;28;20522;-72
2023/12/14 08:23:27;;;;;;;1.33;1.25;;;;;;;4.55;100.00;98723.75;5117352;28;20044;-72
2023/12/14 08:25:56;;;;;;;1.58;1.48;;;;;;;4.53;100.00;98720.38;5117148;28;20039;-72
2023/12/14 08:28:25;;;;;;;2.50;2.25;;;;;;;4.58;100.00;98734.72;5117053;28;20109;-72
2023/12/14 08:30:54;;;;;;;1.67;1.57;;;;;;;4.59;100.00;98735.56;5116955;28;20047;-72
2023/12/14 08:33:23;;;;;;;1.13;1.03;;;;;;;4.64;100.00;98741.50;5117251;28;20044;-72
2023/12/14 08:35:53;;;;;;;1.15;1.05;;;;;;;4.68;100.00;98740.69;5109371;28;20310;-72
2023/12/14 08:38:22;;;;;;;2.40;1.88;;;;;;;4.73;100.00;98750.00;5106124;28;20036;-72
2023/12/14 08:40:52;;;;;;;3.93;2.83;;;;;;;4.76;100.00;98749.19;5104667;28;20052;-72
2023/12/14 08:43:20;;;;;;;7.03;4.18;;;;;;;4.85;100.00;98759.34;5096745;28;20281;-72
2023/12/14 08:45:49;;;;;;;0.60;0.60;;;;;;;4.89;100.00;98756.03;5096306;28;20052;-71
2023/12/14 08:48:18;;;;;;;1.77;1.67;;;;;;;4.96;100.00;98755.22;5101082;28;20044;-72
2023/12/14 08:50:47;;;;;;;0.93;0.93;;;;;;;5.01;100.00;98755.25;5105922;28;20043;-72
2023/12/14 08:53:17;;;;;;;2.67;2.35;;;;;;;5.08;100.00;98767.09;5100949;28;20135;-71
2023/12/14 08:55:46;;;;;;;1.02;0.98;;;;;;;5.03;100.00;98754.44;5096203;28;20048;-72
2023/12/14 08:58:15;;;;;;;5.97;3.50;;;;;;;5.19;100.00;98776.44;5108191;28;20042;-72
2023/12/14 09:00:44;;;;;;;3.78;2.35;;;;;;;5.25;100.00;98775.63;5116614;28;20070;-72
2023/12/14 09:03:13;;;;;;;2.30;1.37;;;;;;;5.28;100.00;98776.47;5116195;28;20495;-72
2023/12/14 09:05:42;;;;;;;1.90;1.77;;;;;;;5.35;100.00;98782.44;5116256;28;20057;-72
2023/12/14 09:08:12;;;;;;;2.70;2.50;;;;;;;5.40;100.00;98781.59;5113255;28;20047;-72
2023/12/14 09:10:42;;;;;;;5.57;2.53;;;;;;;5.48;100.00;98793.44;5098615;28;20154;-72
2023/12/14 09:13:11;;;;;;;2.72;2.53;;;;;;;5.55;100.00;98785.03;5096182;28;20044;-72
2023/12/14 09:15:40;;;;;;;2.65;2.42;;;;;;;5.61;100.00;98790.16;5095563;28;20089;-72
2023/12/14 09:18:14;;;;;;;1.92;1.77;;;;;;;5.64;100.00;98795.22;5095860;28;20032;-72
2023/12/14 09:20:43;;;;;;;3.85;2.70;;;;;;;5.71;100.00;98796.94;5095786;28;20489;-72
2023/12/14 09:23:11;;;;;;;2.93;2.73;;;;;;;5.75;100.00;98803.72;5094153;28;20502;-72
2023/12/14 09:25:40;;;;;;;2.17;1.98;;;;;;;5.76;100.00;98800.34;5095501;28;20048;-72
2023/12/14 09:28:10;;;;;;;4.03;2.70;;;;;;;5.81;100.00;98808.78;5095709;28;20043;-72
2023/12/14 09:30:39;;;;;;;1.48;1.30;;;;;;;5.87;100.00;98818.97;5095456;28;20040;-72
2023/12/14 09:33:08;;;;;;;2.15;1.95;;;;;;;5.93;100.00;98819.00;5095561;28;20075;-72
2023/12/14 09:35:38;;;;;;;3.20;2.67;;;;;;;5.93;100.00;98813.94;5095943;28;20044;-72
2023/12/14 09:38:07;;;;;;;1.90;1.80;;;;;;;6.00;100.00;98824.09;5095240;28;20040;-72
2023/12/14 09:40:38;;;;;;;;;;;;;;;6.04;100.00;98833.41;5094663;28;20052;-72
2023/12/14 09:43:12;;;;;;;4.20;3.80;;;;;;;6.04;100.00;98818.22;5095184;28;20395;-71
2023/12/14 09:45:44;;;;;;;4.50;4.10;;;;;;;6.13;100.00;98832.56;5094120;28;20402;-72
2023/12/14 09:48:16;;;;;;;2.00;1.90;;;;;;;6.18;100.00;98828.38;5094568;28;20052;-72
2023/12/14 09:50:47;;;;;;;2.22;2.03;;;;;;;6.24;100.00;98830.91;5093893;28;20090;-72
2023/12/14 09:53:16;;;;;;;3.70;2.38;;;;;;;6.32;100.00;98829.25;5095292;28;20071;-72
2023/12/14 09:55:44;;;;;;;3.28;3.05;;;;;;;6.41;100.00;98824.19;5093929;28;20040;-72
2023/12/14 09:58:15;;;;;;;2.73;2.50;;;;;;;6.46;100.00;98822.53;5095133;28;20040;-72
2023/12/14 10:00:44;;;;;;;2.35;2.15;;;;;;;6.55;100.00;98827.59;5095122;28;20062;-72
2023/12/14 10:03:23;;;;;;;3.67;2.77;;;;;;;6.62;100.00;98824.22;5094980;28;20036;-72
2023/12/14 10:05:53;;;;;;;2.30;2.15;;;;;;;6.67;100.00;98827.59;5095023;28;20075;-72
2023/12/14 10:08:23;;;;;;;2.40;2.20;;;;;;;6.73;100.00;98822.56;5094683;28;20048;-72
2023/12/14 10:10:55;;;;;;;3.75;3.10;;;;;;;6.82;100.00;98836.06;5094892;28;20150;-73
2023/12/14 10:13:39;;;;;;;1.63;1.48;;;;;;;6.84;100.00;98830.16;5094525;28;20058;-73
2023/12/14 10:16:08;;;;;;;3.40;2.90;;;;;;;6.90;100.00;98834.38;5093621;28;20056;-72
2023/12/14 10:18:37;;;;;;;5.90;3.30;;;;;;;6.99;100.00;98844.53;5093584;28;20059;-72
2023/12/14 10:21:08;;;;;;;2.85;2.60;;;;;;;7.07;100.00;98837.78;5093430;28;20288;-72
2023/12/14 10:23:37;;;;;;;2.08;1.88;;;;;;;7.21;100.00;98848.75;5093508;28;20097;-72
2023/12/14 10:26:06;;;;;;;2.03;1.83;;;;;;;7.31;100.00;98842.84;5094874;28;20036;-72
2023/12/14 10:28:36;;;;;;;0.90;0.90;;;;;;;7.37;100.00;98847.88;5094489;28;20742;-71
2023/12/14 10:31:05;;;;;;;1.83;1.73;;;;;;;7.46;100.00;98850.44;5093055;28;20135;-72
2023/12/14 10:33:34;;;;;;;2.50;2.30;;;;;;;7.54;100.00;98846.16;5094138;28;20501;-72
2023/12/14 10:36:06;;;;;;;1.95;1.75;;;;;;;7.63;100.00;98853.75;5094496;28;20105;-72
2023/12/14 10:38:39;;;;;;;2.20;2.00;;;;;;;7.69;99.86;98856.28;5093235;28;20079;-73
2023/12/14 10:41:09;;;;;;;2.10;1.65;;;;;;;7.77;99.87;98858.81;5094492;28;20040;-72
2023/12/14 10:43:40;;;;;;;2.20;2.05;;;;;;;7.78;99.76;98851.19;5094133;28;20504;-73
2023/12/14 10:46:18;;;;;;;2.25;2.05;;;;;;;7.88;99.10;98863.00;5094279;28;20049;-72
2023/12/14 10:48:49;;;;;;;1.48;1.20;;;;;;;7.93;98.52;98861.31;5093028;28;20051;-73
2023/12/14 10:51:21;;;;;;;1.85;1.67;;;;;;;7.95;98.63;98859.59;5092925;28;20044;-73
2023/12/14 10:53:51;;;;;;;4.30;2.70;;;;;;;7.73;97.54;98821.56;5094088;28;20123;-72
2023/12/14 10:56:21;;;;;;;3.70;2.90;;;;;;;8.09;97.58;98878.16;5092811;28;20050;-72
2023/12/14 10:58:53;;;;;;;0.88;0.88;;;;;;;8.20;97.02;98874.75;5094201;28;20078;-73
2023/12/14 11:01:24;;;;;;;1.63;1.52;;;;;;;8.21;96.38;98877.28;5094098;28;20086;-72
2023/12/14 11:03:56;;;;;;;3.85;2.63;;;;;;;8.23;96.02;98882.38;5094253;28;20036;-72
2023/12/14 11:06:32;;;;;;;2.00;1.63;;;;;;;8.20;95.25;98879.81;5094279;28;20135;-71
2023/12/14 11:09:06;;;;;;;1.58;1.48;;;;;;;8.34;94.51;98890.81;5094121;28;20040;-73
2023/12/14 11:11:43;;;;;;;0.85;0.85;;;;;;;8.40;94.10;98893.31;5092905;28;20052;-73
2023/12/14 11:14:18;;;;;;;1.70;1.60;;;;;;;8.42;93.14;98901.78;5093955;28;20040;-72
2023/12/14 11:16:49;;;;;;;1.40;1.27;;;;;;;8.46;92.96;98900.91;5094187;28;20040;-72
2023/12/14 11:19:30;;;;;;;2.10;1.42;;;;;;;8.48;92.25;98907.69;5093988;28;20558;-73
2023/12/14 11:22:10;;;;;;;0.95;0.93;;;;;;;8.47;91.41;98905.16;5093988;28;20048;-72
2023/12/14 11:24:44;;;;;;;1.63;1.52;;;;;;;8.45;90.48;98911.94;5094068;28;20059;-72
2023/12/14 11:27:13;;;;;;;1.40;1.20;;;;;;;8.44;90.53;98905.19;5093878;28;20079;-72
2023/12/14 11:29:43;;;;;;;1.23;0.93;;;;;;;8.44;89.62;98912.81;5092701;28;20152;-72
2023/12/14 11:32:12;;;;;;;0.98;0.95;;;;;;;8.35;89.92;98895.06;5092262;28;20040;-72
2023/12/14 11:34:41;;;;;;;1.05;1.02;;;;;;;8.45;89.07;98909.38;5093984;28;20047;-72
2023/12/14 11:37:10;;;;;;;1.05;0.82;;;;;;;8.47;88.49;98916.16;5093796;28;20028;-72
2023/12/14 11:39:38;;;;;;;0.70;0.70;;;;;;;8.48;89.17;98917.00;5093752;28;20028;-72
2023/12/14 11:42:10;;;;;;;6.50;2.15;;;;;;;8.50;88.83;98921.22;5092424;28;20036;-72
2023/12/14 11:44:41;;;;;;;1.73;1.58;;;;;;;8.48;87.88;98932.25;5093319;28;20040;-71
2023/12/14 11:47:12;;;;;;;1.25;1.17;;;;;;;8.41;87.40;98915.34;5092414;28;20048;-74